Tiempo atmosférico en la estación meteorológica de Barco De Avila, Ávila (1012 m.)



Fecha
DESCASC
Temp. máxima en grados centígrados (hora)
DESCASC
Temp. mínima en grados centígrados (hora)
DESCASC
Temp. media en grados centígrados
DESCASC
Racha de viento máxima en m/sg (hora)
DESCASC
Velocidad máxima media en intervalos de 10 minutos(hora)
DESCASC
Precipitaciones diarias en mm
DESCASC
Precipitaciones de 00:00 a 06:00 en mm
DESCASC
Precipitaciones de 06:00 a 12:00 en mm
DESCASC
Precipitaciones de 12:00 a 18:00 en mm
DESCASC
Precipitaciones de 18:00 a 24:00 en mm
DESCASC
14-12-2019 11.9 (14:40) 0.9 (03:30) 6.4 8.33 (16:50) 5.56 (15:10) 0 0 0 0 0
13-12-2019 11.4 (15:30) 1.7 (23:40) 6.5 11.11 (03:20) 5.28 (03:10) 0 0 0 0 0
12-12-2019 10.5 (23:20) 1.6 (00:00) 6.1 13.06 (20:20) 6.39 (23:20) 0.2 0 0 0 0.2
11-12-2019 7.2 (14:20) -0.1 (00:00) 3.5 7.78 (15:10) 4.44 (15:00) 0.8 0 0.8 0 0
10-12-2019 11.5 (15:30) -2.4 (-00:0) 4.5 6.11 (09:30) 4.72 (09:30) 0 0 0 0 0
09-12-2019 14.6 (14:40) 0.3 (00:00) 7.5 5.83 (07:50) 4.17 (07:40) 0.2 0.2 0 0 0
08-12-2019 10.1 (14:10) -1 (-00:0) 4.6 4.72 (01:50) 3.33 (01:50) 4.6 0 0 2.4 2.2
07-12-2019 12.9 (15:30) -0.9 (-00:0) 6 5.83 (07:50) 3.89 (07:20) 0 0 0 0 0
06-12-2019 12.7 (14:10) -0.8 (-00:0) 5.9 5 (09:20) 3.61 (09:20) 0 0 0 0 0
05-12-2019 9.7 (15:30) 1.1 (00:00) 5.4 6.11 (02:30) 3.89 (02:20) 0 0 0 0 0
04-12-2019 6.3 (15:30) -1.3 (-00:0) 2.5 5.28 (17:30) 2.78 (11:50) 0 0 0 0 0
03-12-2019 2.1 (00:00) -1.6 (-00:0) 0.2 4.72 (16:10) 2.78 (21:10) 0 0 0 0 0
02-12-2019 7.1 (16:20) 2.1 (00:00) 4.6 7.22 (15:20) 3.89 (13:50) 4 4 0 0 0
01-12-2019 8.1 (16:10) 0.4 (00:00) 4.3 7.78 (05:40) 4.72 (05:40) 6.4 0.4 4.2 1 0.8
30-11-2019 11.3 (15:10) 2.1 (00:00) 6.7 10.83 (10:40) 7.78 (10:40) 6 0 0 1.8 4.2
29-11-2019 13 (15:20) 8.6 (00:00) 10.8 11.67 (00:10) 7.78 (00:10) 3.6 0.2 3 0.4 0
28-11-2019 11.7 (14:10) 2.5 (00:00) 7.1 15.28 (18:20) 10.28 (21:30) 0 0 0 0 0
27-11-2019 11.4 (12:40) 2.2 (00:00) 6.8 12.22 (19:40) 7.22 (20:00) 0.4 0.4 0 0 0
26-11-2019 11.7 (15:50) 5.3 (00:00) 8.5 16.94 (19:10) 10 (19:10) 3.2 0 0 1.6 1.6
25-11-2019 15.1 (13:40) 5.3 (00:00) 10.2 13.06 (00:10) 7.78 (00:10) 0 0 0 0 0
24-11-2019 10.2 (23:59) 0.4 (00:00) 5.3 13.33 (23:59) 8.61 (23:59) 0 0 0 0 0
23-11-2019 8.3 (15:00) 3.7 (00:00) 6 20 (00:40) 9.44 (00:40) 1.4 1.4 0 0 0
22-11-2019 10.8 (14:30) 4.9 (00:00) 7.9 14.72 (11:10) 10 (11:10) 6.6 0.8 3.8 1.4 0.6
21-11-2019 9.5 (13:20) 2.2 (00:00) 5.9 8.89 (13:30) 6.11 (13:30) 0.4 0 0.4 0 0
20-11-2019 5.2 (16:30) 2.7 (00:00) 3.9 10 (07:30) 6.67 (07:30) 0.8 0 0.2 0.6 0
19-11-2019 8 (15:20) -3.5 (-00:0) 2.3 6.39 (16:40) 4.44 (16:40) 0 0 0 0 0
18-11-2019 8 (14:50) -1.5 (-00:0) 3.3 6.39 (02:00) 3.33 (23:59) 0 0 0 0 0
17-11-2019 9.2 (15:30) -1.4 (-00:0) 3.9 9.72 (19:40) 4.72 (19:50) 4.4 0 0.2 0.8 3.4
16-11-2019 7.7 (13:30) -0.9 (-00:0) 3.4 7.22 (16:00) 3.61 (16:20) 0 0 0 0 0
15-11-2019 4.7 (16:20) 0.2 (00:00) 2.4 11.39 (03:20) 5.28 (03:20) 0.8 0.2 0.6 0 0

Gráficas

Temp. máximas Temp. mínimas Temp. medias Precipitaciones Rachas de viento máximas Velocidades máximas media en intervalos de 10 minutos

Datos horarios

Fecha y hora oficial Temperatura (ºC) Velocidad del viento (km/h) Dirección del viento Racha (km/h) Dirección de racha Precipitación (mm) Presión (hPa) Tendencia (hPa) Humedad (%)
2019-12-14 23:00:00 2.8 2 Oeste 19 Sudeste 0 -- -- 88
2019-12-14 22:00:00 2.9 6 Sudoeste 11 Sudoeste 0 -- -- 89
2019-12-14 21:00:00 3.4 3 Oeste 11 Este 0 -- -- 89
2019-12-14 20:00:00 4.1 3 Sudeste 10 Este 0 -- -- 85
2019-12-14 19:00:00 6.1 6 Sudoeste 19 Oeste 0 -- -- 82
2019-12-14 18:00:00 7.4 13 Oeste 26 Sudoeste 0 -- -- 80
2019-12-14 17:00:00 8.1 15 Oeste 30 Oeste 0 -- -- 80
2019-12-14 16:00:00 8.7 15 Oeste 30 Sudoeste 0 -- -- 79
2019-12-14 15:00:00 10.8 18 Oeste 29 Oeste 0 -- -- 68
2019-12-14 14:00:00 11.3 4 Sudeste 13 Este 0 -- -- 65
2019-12-14 13:00:00 9.5 6 Sudeste 11 Este 0 -- -- 71
2019-12-14 12:00:00 8.8 3 Sudoeste 13 Sudoeste 0 -- -- 71
2019-12-14 11:00:00 7.8 9 Sur 15 Sudeste 0 -- -- 71
2019-12-14 10:00:00 6 10 Sur 15 Sur 0 -- -- 80
2019-12-14 09:00:00 4.7 4 Sudeste 9 Sur 0 -- -- 88
2019-12-14 08:00:00 4.3 4 Oeste 8 Norte 0 -- -- 92
2019-12-14 07:00:00 3.7 3 Norte 5 Oeste 0 -- -- 94
2019-12-14 06:00:00 3.1 2 Sudoeste 6 Oeste 0 -- -- 94
2019-12-14 05:00:00 2.4 3 Oeste 10 Oeste 0 -- -- 94
2019-12-14 04:00:00 1.4 6 Oeste 9 Sudoeste 0 -- -- 94
2019-12-14 03:00:00 1.4 4 Oeste 7 Oeste 0 -- -- 92
2019-12-14 02:00:00 2.2 5 Oeste 8 Oeste 0 -- -- 92
2019-12-14 01:00:00 2.8 2 Oeste 10 Sudoeste 0 -- -- 91
2019-12-14 00:00:00 2 4 Oeste 10 Oeste 0 -- -- 93
2019-12-13 23:00:00 2.4 4 Oeste 9 Oeste 0 -- -- 88
2019-12-13 22:00:00 3.7 5 Oeste 11 Noroeste 0 -- -- 83
2019-12-13 21:00:00 5.8 2 Oeste 17 Noroeste 0 -- -- 78
2019-12-13 20:00:00 9.8 9 Norte 33 Norte 0 -- -- 70
2019-12-13 19:00:00 10.2 14 Noroeste 36 Noroeste 0 -- -- 66
2019-12-13 18:00:00 10.4 6 Norte 18 Oeste 0 -- -- 70
2019-12-13 17:00:00 10.9 9 Noroeste 24 Noroeste 0 -- -- 72
2019-12-13 16:00:00 11.3 8 Noroeste 33 Norte 0 -- -- 70
2019-12-13 15:00:00 11.2 13 Oeste 33 Noroeste 0 -- -- 72
2019-12-13 14:00:00 11.2 11 Norte 28 Noroeste 0 -- -- 73
2019-12-13 13:00:00 10.8 11 Noroeste 32 Noroeste 0 -- -- 75
2019-12-13 12:00:00 10.6 9 Norte 21 Norte 0 -- -- 74
2019-12-13 11:00:00 9.5 6 Noroeste 19 Noroeste 0 -- -- 78
2019-12-13 10:00:00 8.6 4 Norte 25 Norte 0 -- -- 81
2019-12-13 09:00:00 8.6 15 Norte 35 Norte 0 -- -- 78
2019-12-13 08:00:00 8.6 10 Norte 24 Norte 0 -- -- 81
2019-12-13 07:00:00 8.6 8 Nordeste 38 Oeste 0 -- -- 79
2019-12-13 06:00:00 8.9 5 Norte 32 Oeste 0 -- -- 80
2019-12-13 05:00:00 9.6 11 Norte 30 Oeste 0 -- -- 78
2019-12-13 04:00:00 9.8 10 Norte 40 Oeste 0 -- -- 84
2019-12-13 03:00:00 10.3 14 Norte 35 Oeste 0 -- -- 83
2019-12-13 02:00:00 9.8 13 Norte 28 Nordeste 0 -- -- 89
2019-12-13 01:00:00 9.6 9 Norte 29 Sudoeste 0 -- -- 90
2019-12-13 00:00:00 9.9 7 Norte 44 Oeste 0 -- -- 86
2019-12-12 23:00:00 9.9 18 Norte 46 Oeste 0.2 -- -- 85
2019-12-12 22:00:00 9 6 Norte 18 Nordeste 0 -- -- 89
2019-12-12 21:00:00 9.6 10 Norte 47 Norte 0 -- -- 83
2019-12-12 20:00:00 9.7 11 Noroeste 33 Sudoeste 0 -- -- 78
2019-12-12 19:00:00 9.5 12 Noroeste 35 Oeste 0 -- -- 76
2019-12-12 18:00:00 9.2 9 Oeste 32 Oeste 0 -- -- 75
2019-12-12 17:00:00 9 12 Oeste 25 Sudoeste 0 -- -- 73
2019-12-12 16:00:00 7.3 5 Noroeste 18 Sudoeste 0 -- -- 77
2019-12-12 15:00:00 7 9 Sudoeste 24 Sudoeste 0 -- -- 77
2019-12-12 14:00:00 6.4 14 Sudoeste 24 Sudoeste 0 -- -- 78
2019-12-12 13:00:00 5.9 10 Oeste 24 Oeste 0 -- -- 79
2019-12-12 12:00:00 6.4 11 Oeste 17 Oeste 0 -- -- 76
2019-12-12 11:00:00 5 8 Oeste 16 Sudoeste 0 -- -- 80
2019-12-12 10:00:00 5.5 4 Noroeste 18 Norte 0 -- -- 76
2019-12-12 09:00:00 4.9 6 Noroeste 15 Noroeste 0 -- -- 73
2019-12-12 08:00:00 4.2 2 Oeste 18 Oeste 0 -- -- 77
2019-12-12 07:00:00 4.2 2 Nordeste 29 Noroeste 0 -- -- 77
2019-12-12 06:00:00 4.2 6 Norte 17 Nordeste 0 -- -- 76
2019-12-12 05:00:00 3.8 10 Nordeste 18 Este 0 -- -- 77
2019-12-12 04:00:00 3.4 7 Este 11 Este 0 -- -- 80
2019-12-12 03:00:00 2.8 3 Noroeste 6 Este 0 -- -- 85
2019-12-12 02:00:00 2.8 3 Este 9 Este 0 -- -- 84
2019-12-12 01:00:00 2.3 4 Este 11 Este 0 -- -- 85
2019-12-12 00:00:00 1.6 2 Sudeste 10 Este 0 -- -- 86
2019-12-11 23:00:00 1 3 Nordeste 11 Este 0 -- -- 86
2019-12-11 22:00:00 0.7 8 Este 12 Nordeste 0 -- -- 85
2019-12-11 21:00:00 1 6 Nordeste 11 Noroeste 0 -- -- 83
2019-12-11 20:00:00 1.9 4 Este 9 Este 0 -- -- 78
2019-12-11 19:00:00 3.2 3 Sudeste 21 Norte 0 -- -- 74
2019-12-11 18:00:00 4.7 12 Norte 26 Noroeste 0 -- -- 70
2019-12-11 17:00:00 6.1 13 Norte 26 Noroeste 0 -- -- 66
2019-12-11 16:00:00 6.1 14 Noroeste 28 Norte 0 -- -- 66
2019-12-11 15:00:00 6.6 16 Norte 26 Norte 0 -- -- 67
2019-12-11 14:00:00 7.1 12 Noroeste 27 Noroeste 0 -- -- 67
2019-12-11 13:00:00 6.1 12 Norte 22 Norte 0 -- -- 74
2019-12-11 12:00:00 5.4 8 Nordeste 23 Norte 0 -- -- 86
2019-12-11 11:00:00 5.6 6 Nordeste 23 Nordeste 0 -- -- 89
2019-12-11 10:00:00 5.3 11 Nordeste 19 Norte 0.8 -- -- 89
2019-12-11 09:00:00 3.3 6 Oeste 14 Oeste 0 -- -- 81
2019-12-11 08:00:00 1.4 3 Sudoeste 10 Oeste 0 -- -- 83
2019-12-11 07:00:00 0.8 6 Sudoeste 14 Oeste 0 -- -- 82
2019-12-11 06:00:00 0.6 9 Oeste 15 Oeste 0 -- -- 80
2019-12-11 05:00:00 0.3 5 Sur 14 Oeste 0 -- -- 81
2019-12-11 04:00:00 1.1 10 Sudoeste 18 Oeste 0 -- -- 78
2019-12-11 03:00:00 1.2 7 Sudoeste 13 Oeste 0 -- -- 80
2019-12-11 02:00:00 1.7 5 Sudoeste 15 Oeste 0 -- -- 77
2019-12-11 01:00:00 0.6 4 Sudoeste 9 Noroeste 0 -- -- 79
2019-12-11 00:00:00 1.7 3 Este 15 Oeste 0 -- -- 74
2019-12-10 23:00:00 1.7 12 Sudoeste 17 Sudoeste 0 -- -- 75
2019-12-10 22:00:00 2.2 6 Oeste 9 Oeste 0 -- -- 75
2019-12-10 21:00:00 3.1 3 Oeste 13 Sudoeste 0 -- -- 71
2019-12-10 20:00:00 4.5 4 Sudoeste 10 Sudoeste 0 -- -- 68
2019-12-10 19:00:00 6.3 2 Sudoeste 8 Sur 0 -- -- 63
2019-12-10 18:00:00 8.3 3 Sudoeste 5 Sur 0 -- -- 60
2019-12-10 17:00:00 10.1 2 Este 7 Este 0 -- -- 53
2019-12-10 16:00:00 11.2 4 Nordeste 6 Este 0 -- -- 46
2019-12-10 15:00:00 11.1 5 Nordeste 10 Norte 0 -- -- 47
2019-12-10 14:00:00 10.4 4 Oeste 8 Sudoeste 0 -- -- 50
2019-12-10 13:00:00 9.4 2 Nordeste 6 Este 0 -- -- 51
2019-12-10 12:00:00 6.7 3 Oeste 6 Oeste 0 -- -- 58
2019-12-10 11:00:00 1.8 3 Sudeste 14 Sudoeste 0 -- -- 75
2019-12-10 10:00:00 0.4 10 Oeste 22 Sudoeste 0 -- -- 73
2019-12-10 09:00:00 -1.6 11 Sudoeste 18 Sudoeste 0 -- -- 77
2019-12-10 08:00:00 -1.6 12 Sudoeste 19 Sudoeste 0 -- -- 77
2019-12-10 07:00:00 -1.1 14 Sudoeste 19 Sudoeste 0 -- -- 76
2019-12-10 06:00:00 -1.7 11 Sudoeste 15 Sudoeste 0 -- -- 81
2019-12-10 05:00:00 -1.7 10 Sudoeste 16 Sudoeste 0 -- -- 83
2019-12-10 04:00:00 -1 12 Sudoeste 16 Sudoeste 0 -- -- 81
2019-12-10 03:00:00 -0.8 7 Sudoeste 14 Sudoeste 0 -- -- 81
2019-12-10 02:00:00 -0.5 12 Sudoeste 16 Sudoeste 0 -- -- 82
2019-12-10 01:00:00 0 8 Sudoeste 13 Sudoeste 0 -- -- 84
2019-12-10 00:00:00 1.1 9 Sudoeste 14 Oeste 0 -- -- 82
2019-12-09 23:00:00 2.3 5 Sudoeste 9 Sudoeste 0 -- -- 79
2019-12-09 22:00:00 3.9 3 Sur 8 Oeste 0 -- -- 75
2019-12-09 21:00:00 4.6 2 Oeste 8 Oeste 0 -- -- 76
2019-12-09 20:00:00 6.5 4 Este 10 Norte 0 -- -- 65
2019-12-09 19:00:00 8.3 4 Norte 12 Nordeste 0 -- -- 64
2019-12-09 18:00:00 10.5 5 Norte 12 Norte 0 -- -- 49
2019-12-09 17:00:00 13 2 Nordeste 10 Nordeste 0 -- -- 38
2019-12-09 16:00:00 14.1 7 Nordeste 13 Nordeste 0 -- -- 29
2019-12-09 15:00:00 14.4 6 Norte 14 Norte 0 -- -- 29
2019-12-09 14:00:00 13.6 3 Nordeste 8 Nordeste 0 -- -- 38
2019-12-09 13:00:00 10.5 2 Oeste 8 Este 0 -- -- 64
2019-12-09 12:00:00 8 4 Sudoeste 12 Sudoeste 0 -- -- 61
2019-12-09 11:00:00 3.1 9 Sudoeste 13 Sudoeste 0 -- -- 87
2019-12-09 10:00:00 1.8 6 Oeste 17 Sudoeste 0 -- -- 88
2019-12-09 09:00:00 0.7 11 Sudoeste 17 Sudoeste 0 -- -- 87
2019-12-09 08:00:00 1 8 Sudeste 21 Sudoeste 0 -- -- 90
2019-12-09 07:00:00 2.4 13 Sur 19 Sudoeste 0 -- -- 91
2019-12-09 06:00:00 3.5 3 Sur 15 Sudoeste 0 -- -- 94
2019-12-09 05:00:00 5.2 11 Sudoeste 16 Sur 0 -- -- 95
2019-12-09 04:00:00 7.4 5 Sudoeste 9 Sudoeste 0 -- -- 97
2019-12-09 03:00:00 7.9 5 Norte 11 Norte -- -- -- 97
2019-12-09 02:00:00 7.6 3 Nordeste 6 Este 0.2 -- -- 97
2019-12-09 01:00:00 8.7 3 Noroeste 4 Noroeste 0 -- -- 97
2019-12-09 00:00:00 9 2 Nordeste 5 Norte 0 -- -- 97
2019-12-08 23:00:00 9 3 Este 4 Este 0.4 -- -- 97
2019-12-08 22:00:00 9 0 Calma 6 Este 0.4 -- -- 97
2019-12-08 21:00:00 9 3 Nordeste 6 Noroeste 0.4 -- -- 97
2019-12-08 20:00:00 8.7 4 Nordeste 10 Este 0.8 -- -- 96
2019-12-08 19:00:00 8.7 0 Calma -- -- 0.2 -- -- 95
2019-12-08 18:00:00 8.8 2 Noroeste 4 Noroeste 0.2 -- -- 94
2019-12-08 17:00:00 8.9 0 Calma 6 Oeste 0.6 -- -- 93
2019-12-08 16:00:00 8.6 0 Calma 17 Norte 1.6 -- -- 91
2019-12-08 15:00:00 9.6 6 Norte 14 Norte 0 -- -- 80
2019-12-08 14:00:00 10 3 Nordeste 5 Norte 0 -- -- 71
2019-12-08 13:00:00 8.4 2 Este 6 Este 0 -- -- 78
2019-12-08 12:00:00 6.2 3 Sur 13 Oeste 0 -- -- 85
2019-12-08 11:00:00 3.3 4 Este 10 Sudoeste 0 -- -- 89
2019-12-08 10:00:00 1.5 6 Oeste 14 Sudoeste 0 -- -- 93
2019-12-08 09:00:00 0.8 11 Sudoeste 15 Sudoeste 0 -- -- 93
2019-12-08 08:00:00 -0.7 8 Sudoeste 12 Sudoeste 0 -- -- 92
2019-12-08 07:00:00 -0.7 6 Sudoeste 11 Sudoeste 0 -- -- 93
2019-12-08 06:00:00 -0.6 5 Sur 15 Sudoeste 0 -- -- 92
2019-12-08 05:00:00 -0.5 8 Sudoeste 11 Sudoeste 0 -- -- 95
2019-12-08 04:00:00 -0.5 3 Oeste 12 Oeste 0 -- -- 92
2019-12-08 03:00:00 0.3 4 Oeste 17 Sudoeste 0 -- -- 91
2019-12-08 02:00:00 0.7 12 Sudoeste 17 Sudoeste 0 -- -- 91
2019-12-08 01:00:00 0.8 11 Sudoeste 16 Oeste 0 -- -- 92
2019-12-08 00:00:00 0.7 4 Sudoeste 12 Sudoeste 0 -- -- 91
2019-12-07 23:00:00 1.8 6 Sudoeste 16 Sudoeste 0 -- -- 90
2019-12-07 22:00:00 2.4 6 Sudoeste 13 Sudoeste 0 -- -- 88
2019-12-07 21:00:00 3.4 9 Sudoeste 12 Sudoeste 0 -- -- 87
2019-12-07 20:00:00 4.7 4 Sudoeste 8 Oeste 0 -- -- 81
2019-12-07 19:00:00 7.2 3 Este 6 Nordeste 0 -- -- 74
2019-12-07 18:00:00 10.6 3 Norte 12 Norte 0 -- -- 60
2019-12-07 17:00:00 12.5 4 Norte 13 Nordeste 0 -- -- 54
2019-12-07 16:00:00 12.8 6 Nordeste 17 Nordeste 0 -- -- 56
2019-12-07 15:00:00 12.7 10 Nordeste 18 Norte 0 -- -- 60
2019-12-07 14:00:00 12.5 11 Norte 19 Norte 0 -- -- 51
2019-12-07 13:00:00 11.5 2 Sudoeste 8 Sudoeste 0 -- -- 55
2019-12-07 12:00:00 8.5 3 Sudoeste 5 Sudoeste 0 -- -- 67
2019-12-07 11:00:00 4.7 4 Este 13 Sudoeste 0 -- -- 82
2019-12-07 10:00:00 1.4 8 Sudoeste 13 Sudoeste 0 -- -- 91
2019-12-07 09:00:00 -0.7 8 Sudoeste 16 Sudoeste 0 -- -- 92
2019-12-07 08:00:00 -0.5 7 Sur 21 Sudoeste 0 -- -- 93
2019-12-07 07:00:00 -0.3 11 Sudoeste 17 Sudoeste 0 -- -- 93
2019-12-07 06:00:00 -0.5 9 Sudoeste 14 Sudoeste 0 -- -- 95
2019-12-07 05:00:00 -0.3 11 Sudoeste 14 Sudoeste 0 -- -- 94
2019-12-07 04:00:00 0 6 Sudoeste 14 Sudoeste 0 -- -- 94
2019-12-07 03:00:00 0 8 Sudoeste 12 Sudoeste 0 -- -- 94
2019-12-07 02:00:00 0.3 6 Sudoeste 14 Oeste 0 -- -- 94
2019-12-07 01:00:00 1.1 6 Oeste 17 Sudoeste 0 -- -- 92
2019-12-07 00:00:00 1.2 12 Sudoeste 16 Sudoeste 0 -- -- 94
2019-12-06 23:00:00 1.1 11 Sudoeste 16 Sudoeste 0 -- -- 93
2019-12-06 22:00:00 2.5 0 Calma 14 Sudoeste 0 -- -- 91
2019-12-06 21:00:00 3 12 Sudoeste 14 Sudoeste 0 -- -- 90
2019-12-06 20:00:00 4.3 9 Sudoeste 12 Sudoeste 0 -- -- 85
2019-12-06 19:00:00 6.4 2 Nordeste 12 Norte 0 -- -- 77
2019-12-06 18:00:00 8.9 9 Norte 17 Noroeste 0 -- -- 70
2019-12-06 17:00:00 11.2 8 Norte 15 Noroeste 0 -- -- 65
2019-12-06 16:00:00 12.3 8 Norte 18 Norte 0 -- -- 58
2019-12-06 15:00:00 12.3 8 Norte 17 Norte 0 -- -- 54
2019-12-06 14:00:00 12.3 3 Norte 10 Este 0 -- -- 55
2019-12-06 13:00:00 11.4 7 Sudeste 17 Sur 0 -- -- 64
2019-12-06 12:00:00 9.4 10 Sur 17 Sudeste 0 -- -- 69
2019-12-06 11:00:00 6.1 8 Sudoeste 12 Sudoeste 0 -- -- 84
2019-12-06 10:00:00 1.9 5 Sudoeste 18 Sudoeste 0 -- -- 94
2019-12-06 09:00:00 -0.3 6 Sudoeste 13 Sudoeste 0 -- -- 95
2019-12-06 08:00:00 -0.1 10 Oeste 15 Sudoeste 0 -- -- 95
2019-12-06 07:00:00 -0.2 7 Sudoeste 13 Sudoeste 0 -- -- 96
2019-12-06 06:00:00 -0.4 9 Sudoeste 12 Sudoeste 0 -- -- 96
2019-12-06 05:00:00 -0.6 4 Sudoeste 12 Oeste 0 -- -- 96
2019-12-06 04:00:00 -0.5 8 Sudoeste 11 Sudoeste 0 -- -- 95
2019-12-06 03:00:00 0.2 3 Oeste 15 Sudoeste 0 -- -- 94
2019-12-06 02:00:00 1.1 12 Sudoeste 16 Oeste 0 -- -- 94
2019-12-06 01:00:00 1.5 8 Sudoeste 13 Oeste 0 -- -- 94
2019-12-06 00:00:00 1.5 7 Sudoeste 11 Sudoeste 0 -- -- 95
2019-12-05 23:00:00 1.6 3 Sudoeste 8 Sudoeste 0 -- -- 93
2019-12-05 22:00:00 2.4 6 Oeste 7 Oeste 0 -- -- 92
2019-12-05 21:00:00 3.2 0 Calma 5 Sudoeste 0 -- -- 89
2019-12-05 20:00:00 5.6 4 Norte 16 Norte 0 -- -- 83
2019-12-05 19:00:00 5.9 5 Nordeste 21 Noroeste 0 -- -- 83
2019-12-05 18:00:00 7 10 Norte 18 Noroeste 0 -- -- 79
2019-12-05 17:00:00 7.4 9 Norte 22 Norte 0 -- -- 79
2019-12-05 16:00:00 8.7 9 Norte 18 Norte 0 -- -- 75
2019-12-05 15:00:00 9 8 Nordeste 15 Norte 0 -- -- 71
2019-12-05 14:00:00 7.6 5 Norte 10 Noroeste 0 -- -- 76
2019-12-05 13:00:00 6.4 4 Noroeste 9 Noroeste 0 -- -- 78
2019-12-05 12:00:00 6.4 3 Oeste 9 Sudoeste 0 -- -- 79
2019-12-05 11:00:00 4.8 5 Sur 9 Sur 0 -- -- 85
2019-12-05 10:00:00 4 4 Sur 9 Norte 0 -- -- 87
2019-12-05 09:00:00 3.7 6 Norte 10 Norte 0 -- -- 87
2019-12-05 08:00:00 3.6 4 Norte 10 Norte 0 -- -- 86
2019-12-05 07:00:00 3.6 6 Norte 14 Norte 0 -- -- 86
2019-12-05 06:00:00 3.4 4 Norte 12 Norte 0 -- -- 88
2019-12-05 05:00:00 3.4 5 Norte 17 Norte 0 -- -- 89
2019-12-05 04:00:00 3.9 3 Norte 9 Norte 0 -- -- 90
2019-12-05 03:00:00 3.9 3 Norte 22 Norte 0 -- -- 91
2019-12-05 02:00:00 3.4 7 Nordeste 14 Norte 0 -- -- 96
2019-12-05 01:00:00 1.3 4 Nordeste 8 Oeste 0 -- -- 95
2019-12-05 00:00:00 1.4 0 Calma 6 Este 0 -- -- 95
2019-12-04 23:00:00 2.5 3 Oeste 6 Sudoeste 0 -- -- 93
2019-12-04 22:00:00 3.6 4 Oeste 5 Oeste 0 -- -- 91
2019-12-04 21:00:00 4.7 4 Nordeste 6 Sudeste 0 -- -- 90
2019-12-04 20:00:00 4.6 2 Este 6 Sudeste 0 -- -- 90
2019-12-04 19:00:00 4.5 3 Nordeste 11 Norte 0 -- -- 89
2019-12-04 18:00:00 4.6 7 Norte 19 Norte 0 -- -- 86
2019-12-04 17:00:00 5.3 6 Norte 17 Noroeste 0 -- -- 85
2019-12-04 16:00:00 6.2 7 Nordeste 17 Norte 0 -- -- 84
2019-12-04 15:00:00 6 6 Norte 12 Norte 0 -- -- 85
2019-12-04 14:00:00 4.8 5 Norte 13 Nordeste 0 -- -- 89
2019-12-04 13:00:00 3.7 7 Norte 14 Noroeste 0 -- -- 92
2019-12-04 12:00:00 3.1 9 Norte 17 Norte 0 -- -- 93
2019-12-04 11:00:00 1.7 2 Nordeste 7 Nordeste 0 -- -- 97
2019-12-04 10:00:00 0.5 0 Calma 9 Oeste 0 -- -- 97
2019-12-04 09:00:00 -0.8 6 Sudoeste 10 Sudoeste 0 -- -- 98
2019-12-04 08:00:00 -0.5 3 Noroeste 9 Oeste 0 -- -- 97
2019-12-04 07:00:00 -0.3 4 Oeste 11 Sudoeste 0 -- -- 98
2019-12-04 06:00:00 -0.9 5 Sudoeste 8 Sudoeste 0 -- -- 98
2019-12-04 05:00:00 -0.6 0 Calma 8 Sudoeste 0 -- -- 97
2019-12-04 04:00:00 -0.7 5 Sur 9 Sudoeste 0 -- -- 98
2019-12-04 03:00:00 -1 2 Este 6 Nordeste 0 -- -- 98
2019-12-04 02:00:00 -1.1 2 Nordeste 8 Nordeste 0 -- -- 98
2019-12-04 01:00:00 -1.1 5 Nordeste 18 Este 0 -- -- 98
2019-12-04 00:00:00 -1.1 0 Calma 10 Sudoeste 0 -- -- 97
2019-12-03 23:00:00 -0.3 6 Sudoeste 9 Sudoeste 0 -- -- 97
2019-12-03 22:00:00 0.1 4 Sudoeste 15 Sudoeste 0 -- -- 97
2019-12-03 21:00:00 0.9 9 Sudoeste 13 Sudoeste 0 -- -- 96
2019-12-03 20:00:00 1.2 3 Sur 12 Sudoeste 0 -- -- 96
2019-12-03 19:00:00 1.5 4 Sur 13 Sudoeste 0 -- -- 95
2019-12-03 18:00:00 1.6 7 Oeste 10 Oeste 0 -- -- 95
2019-12-03 17:00:00 1.8 5 Noroeste 17 Norte 0 -- -- 93
2019-12-03 16:00:00 1.6 9 Nordeste 15 Norte 0 -- -- 93
2019-12-03 15:00:00 1.6 5 Norte 13 Norte 0 -- -- 94
2019-12-03 14:00:00 1.3 4 Nordeste 10 Nordeste 0 -- -- 96
2019-12-03 13:00:00 0.5 6 Nordeste 14 Nordeste 0 -- -- 97
2019-12-03 12:00:00 0.2 6 Norte 12 Norte 0 -- -- 98
2019-12-03 11:00:00 -0.2 4 Norte 8 Norte 0 -- -- 98
2019-12-03 10:00:00 -0.4 2 Oeste 7 Sudoeste 0 -- -- 98
2019-12-03 09:00:00 -0.6 2 Sur 6 Oeste 0 -- -- 97
2019-12-03 08:00:00 -0.1 4 Sudoeste 8 Sudoeste 0 -- -- 97
2019-12-03 07:00:00 0 2 Sur 6 Este 0 -- -- 97
2019-12-03 06:00:00 -0.1 4 Nordeste 6 Norte 0 -- -- 97
2019-12-03 05:00:00 -0.6 0 Calma 5 Oeste 0 -- -- 97
2019-12-03 04:00:00 -1.6 0 Calma 4 Sudoeste 0 -- -- 95
2019-12-03 03:00:00 -1.2 0 Calma 7 Este 0 -- -- 94
2019-12-03 02:00:00 -0.4 0 Calma 6 Nordeste 0 -- -- 93
2019-12-03 01:00:00 1 0 Calma 6 Este 0 -- -- 91
2019-12-03 00:00:00 2.1 4 Nordeste 13 Noroeste 0 -- -- 90
2019-12-02 23:00:00 3.5 9 Norte 21 Norte 0 -- -- 86
2019-12-02 22:00:00 4 12 Norte 22 Norte 0 -- -- 86
2019-12-02 21:00:00 4.9 12 Norte 22 Nordeste 0 -- -- 85
2019-12-02 20:00:00 5.3 13 Norte 18 Norte 0 -- -- 83
2019-12-02 19:00:00 5.7 6 Nordeste 17 Norte 0 -- -- 81
2019-12-02 18:00:00 6.4 6 Norte 21 Nordeste 0 -- -- 73
2019-12-02 17:00:00 6.9 13 Nordeste 23 Norte 0 -- -- 68
2019-12-02 16:00:00 6.9 13 Nordeste 26 Nordeste 0 -- -- 68
2019-12-02 15:00:00 6.7 11 Nordeste 22 Nordeste 0 -- -- 67
2019-12-02 14:00:00 6.8 14 Nordeste 25 Nordeste 0 -- -- 71
2019-12-02 13:00:00 6 6 Nordeste 19 Norte 0 -- -- 76
2019-12-02 12:00:00 5.8 8 Nordeste 18 Nordeste 0 -- -- 78
2019-12-02 11:00:00 5.6 0 Calma 8 Norte 0 -- -- 74
2019-12-02 10:00:00 4.3 3 Norte 12 Norte 0 -- -- 80
2019-12-02 09:00:00 2.7 4 Nordeste 18 Norte 0 -- -- 89
2019-12-02 08:00:00 3.2 5 Norte 14 Nordeste 0 -- -- 87
2019-12-02 07:00:00 3.8 7 Norte 18 Norte 0 -- -- 88
2019-12-02 06:00:00 3.9 11 Norte 21 Noroeste 0 -- -- 90
2019-12-02 05:00:00 3.9 5 Norte 8 Noroeste 0 -- -- 92
2019-12-02 04:00:00 3.3 0 Calma 6 Nordeste 0.4 -- -- 94
2019-12-02 03:00:00 3.7 2 Norte 5 Norte 0.8 -- -- 94
2019-12-02 02:00:00 3.7 0 Calma 6 Este 1 -- -- 93
2019-12-02 01:00:00 3.9 4 Este 14 Nordeste 1.8 -- -- 91
2019-12-02 00:00:00 4.4 8 Nordeste 16 Nordeste 0.6 -- -- 93
2019-12-01 23:00:00 4.9 8 Norte 19 Norte 0.2 -- -- 92
2019-12-01 22:00:00 5.2 9 Norte 18 Norte 0 -- -- 91
2019-12-01 21:00:00 5.4 6 Norte 16 Norte 0 -- -- 91
2019-12-01 20:00:00 5.6 10 Norte 15 Norte 0 -- -- 91
2019-12-01 19:00:00 5.8 9 Norte 17 Norte 0 -- -- 90
2019-12-01 18:00:00 6.4 6 Norte 15 Noroeste 0.4 -- -- 88
2019-12-01 17:00:00 7.1 3 Sudoeste 9 Sur 0 -- -- 83
2019-12-01 16:00:00 7.8 5 Sur 8 Sur 0 -- -- 84
2019-12-01 15:00:00 7.1 4 Sur 9 Norte 0.6 -- -- 89
2019-12-01 14:00:00 6.4 6 Norte 12 Norte 0 -- -- 89
2019-12-01 13:00:00 6.5 4 Nordeste 12 Nordeste 0 -- -- 83
2019-12-01 12:00:00 5.9 6 Nordeste 22 Este 0.4 -- -- 89
2019-12-01 11:00:00 5.1 11 Este 21 Nordeste 1.2 -- -- 92
2019-12-01 10:00:00 5.7 8 Nordeste 17 Oeste 1 -- -- 92
2019-12-01 09:00:00 5.3 8 Sudoeste 17 Sudoeste 1 -- -- 93
2019-12-01 08:00:00 4.9 7 Sudoeste 23 Sudoeste 0.4 -- -- 92
2019-12-01 07:00:00 4.8 11 Sudoeste 25 Sudoeste 0.2 -- -- 89
2019-12-01 06:00:00 4.3 8 Sur 28 Sudoeste 0.4 -- -- 83
2019-12-01 05:00:00 5.4 9 Sudoeste 24 Sudoeste 0 -- -- 86
2019-12-01 04:00:00 4.2 6 Noroeste 19 Sur 0 -- -- 87
2019-12-01 03:00:00 0.4 9 Sudoeste 17 Sudoeste 0 -- -- 96
2019-12-01 02:00:00 0.4 5 Sudoeste 11 Oeste 0 -- -- 96
2019-12-01 01:00:00 1 0 Calma 15 Oeste 0 -- -- 95
2019-12-01 00:00:00 2.1 5 Sudoeste 15 Oeste 0 -- -- 92
2019-11-30 23:00:00 4.2 4 Noroeste 21 Este 0 -- -- 88
2019-11-30 22:00:00 5.4 10 Nordeste 20 Este 0 -- -- 86
2019-11-30 21:00:00 6.5 11 Nordeste 23 Este 0 -- -- 86
2019-11-30 20:00:00 6.9 13 Nordeste 29 Noroeste 2 -- -- 92
2019-11-30 19:00:00 7.9 17 Noroeste 39 Noroeste 2.2 -- -- 89
2019-11-30 18:00:00 10.3 10 Sudoeste 24 Sudoeste 0.2 -- -- 90
2019-11-30 17:00:00 10.6 9 Sudoeste 31 Sudoeste 0.8 -- -- 89
2019-11-30 16:00:00 10.7 16 Sudoeste 34 Sudoeste 0.2 -- -- 90
2019-11-30 15:00:00 10.7 18 Sudoeste 33 Oeste 0.2 -- -- 91
2019-11-30 14:00:00 10.3 17 Oeste 30 Sudoeste 0.2 -- -- 91
2019-11-30 13:00:00 9.8 19 Oeste 39 Oeste 0.2 -- -- 93
2019-11-30 12:00:00 9.9 25 Oeste 39 Sudoeste 0 -- -- 92
2019-11-30 11:00:00 10.1 26 Sudoeste 39 Sudoeste 0 -- -- 91
2019-11-30 10:00:00 9.9 22 Sudoeste 37 Sudoeste 0 -- -- 90
2019-11-30 09:00:00 7.7 9 Sudoeste 24 Sudoeste 0 -- -- 94
2019-11-30 08:00:00 9.4 13 Oeste 21 Oeste 0 -- -- 92
2019-11-30 07:00:00 9.3 15 Oeste 27 Sudoeste 0 -- -- 93
2019-11-30 06:00:00 8.8 9 Sudoeste 24 Sudoeste 0 -- -- 88
2019-11-30 05:00:00 9.8 8 Sudoeste 23 Sudoeste 0 -- -- 86
2019-11-30 04:00:00 10.1 13 Sudoeste 27 Oeste 0 -- -- 89
2019-11-30 03:00:00 9.4 16 Sudoeste 27 Sudoeste 0 -- -- 93
2019-11-30 02:00:00 8.3 7 Sur 18 Sudoeste 0 -- -- 92
2019-11-30 01:00:00 8.1 3 Sudoeste 10 Sudoeste 0 -- -- 92
2019-11-30 00:00:00 8.6 2 Sur 12 Sudoeste 0 -- -- 92
2019-11-29 23:00:00 9.4 7 Sudoeste 11 Sudoeste 0 -- -- 90
2019-11-29 22:00:00 10.7 6 Sudoeste 29 Sudoeste 0 -- -- 91
2019-11-29 21:00:00 10.9 21 Oeste 33 Sudoeste 0 -- -- 93
2019-11-29 20:00:00 10.9 12 Sudoeste 22 Sudoeste 0 -- -- 92
2019-11-29 19:00:00 11.1 10 Sudoeste 19 Sudoeste 0 -- -- 92
2019-11-29 18:00:00 11.4 10 Oeste 25 Oeste 0 -- -- 89
2019-11-29 17:00:00 11.8 8 Oeste 22 Sudoeste 0 -- -- 88
2019-11-29 16:00:00 12.4 13 Sudoeste 22 Sudoeste 0 -- -- 86
2019-11-29 15:00:00 12.8 11 Oeste 20 Sudoeste 0 -- -- 84
2019-11-29 14:00:00 12.3 5 Sudoeste 14 Sudoeste 0.4 -- -- 90
2019-11-29 13:00:00 12.1 8 Oeste 23 Oeste 0 -- -- 89
2019-11-29 12:00:00 12.2 15 Sudoeste 24 Sudoeste 0 -- -- 88
2019-11-29 11:00:00 11.4 15 Sudoeste 24 Sudoeste 0.8 -- -- 92
2019-11-29 10:00:00 10.4 4 Sudoeste 21 Sudoeste 0.2 -- -- 94
2019-11-29 09:00:00 9.9 5 Sudoeste 20 Sudoeste 1 -- -- 94
2019-11-29 08:00:00 10.2 3 Sudoeste 23 Sudoeste 0.6 -- -- 93
2019-11-29 07:00:00 10.1 9 Sudoeste 22 Oeste 0.4 -- -- 93
2019-11-29 06:00:00 10.3 15 Oeste 23 Oeste 0.2 -- -- 92
2019-11-29 05:00:00 10.3 14 Oeste 23 Oeste 0 -- -- 93
2019-11-29 04:00:00 10.3 14 Oeste 24 Oeste 0 -- -- 92
2019-11-29 03:00:00 10 12 Oeste 22 Oeste 0 -- -- 92
2019-11-29 02:00:00 10.1 11 Oeste 32 Oeste 0 -- -- 90
2019-11-29 01:00:00 10.5 26 Oeste 42 Oeste 0 -- -- 87
2019-11-29 00:00:00 10.4 30 Oeste 44 Sudoeste 0 -- -- 87
2019-11-28 23:00:00 10.2 30 Oeste 49 Oeste 0 -- -- 87
2019-11-28 22:00:00 10.1 27 Oeste 55 Oeste 0 -- -- 86
2019-11-28 21:00:00 10.7 32 Oeste 47 Sudoeste 0 -- -- 77
2019-11-28 20:00:00 10.5 23 Oeste 49 Sudoeste 0 -- -- 76
2019-11-28 19:00:00 10.5 35 Oeste 55 Sudoeste 0 -- -- 73
2019-11-28 18:00:00 10.3 29 Sudoeste 53 Sudoeste 0 -- -- 81
2019-11-28 17:00:00 10.3 31 Oeste 50 Sudoeste 0 -- -- 75
2019-11-28 16:00:00 11.2 22 Sudoeste 39 Oeste 0 -- -- 83
2019-11-28 15:00:00 10.1 21 Oeste 37 Sudoeste 0 -- -- 85
2019-11-28 14:00:00 11.3 19 Sudoeste 35 Sudoeste 0 -- -- 74
2019-11-28 13:00:00 10.3 18 Sudoeste 40 Sudoeste 0 -- -- 77
2019-11-28 12:00:00 9.8 18 Oeste 39 Oeste 0 -- -- 82
2019-11-28 11:00:00 9.9 23 Oeste 48 Sudoeste 0 -- -- 82
2019-11-28 10:00:00 9.3 7 Sur 21 Oeste 0 -- -- 84
2019-11-28 09:00:00 6.7 5 Oeste 15 Sudoeste 0 -- -- 95
2019-11-28 08:00:00 6.5 6 Oeste 21 Oeste 0 -- -- 84
2019-11-28 07:00:00 4.8 4 Noroeste 15 Oeste 0 -- -- 96
2019-11-28 06:00:00 2.7 5 Sudoeste 13 Sudoeste 0 -- -- 90
2019-11-28 05:00:00 3.4 6 Este 14 Este 0 -- -- 88
2019-11-28 04:00:00 6.6 12 Sudoeste 24 Sudoeste 0 -- -- 88
2019-11-28 03:00:00 5.8 11 Sudoeste 23 Sudoeste 0 -- -- 86
2019-11-28 02:00:00 5.8 6 Sudoeste 10 Sudoeste 0 -- -- 84
2019-11-28 01:00:00 7.5 3 Sur 18 Oeste 0 -- -- 79
2019-11-28 00:00:00 8.6 10 Oeste 37 Sudoeste 0 -- -- 75
2019-11-27 23:00:00 8.4 23 Sudoeste 37 Sudoeste 0 -- -- 75
2019-11-27 22:00:00 8.6 21 Sudoeste 39 Sudoeste 0 -- -- 77
2019-11-27 21:00:00 8.7 22 Sudoeste 40 Sudoeste 0 -- -- 77
2019-11-27 20:00:00 8.8 26 Sudoeste 44 Sudoeste 0 -- -- 72
2019-11-27 19:00:00 8.8 18 Sudoeste 27 Sudoeste 0 -- -- 77
2019-11-27 18:00:00 8.7 22 Sudoeste 34 Sudoeste 0 -- -- 77
2019-11-27 17:00:00 9.4 21 Oeste 33 Oeste 0 -- -- 72
2019-11-27 16:00:00 10 21 Oeste 39 Oeste 0 -- -- 71
2019-11-27 15:00:00 11 19 Oeste 38 Oeste 0 -- -- 66
2019-11-27 14:00:00 9.2 17 Sudoeste 30 Sudoeste 0 -- -- 77
2019-11-27 06:00:00 -- -- -- -- -- -- -- -- --
2019-11-27 05:00:00 7 8 Nordeste 18 Nordeste 0 -- -- 86
2019-11-27 04:00:00 8.7 9 Oeste 27 Sudoeste 0 -- -- 78
2019-11-27 03:00:00 9.4 12 Noroeste 30 Sudoeste 0 -- -- 83
2019-11-27 02:00:00 9.6 21 Sudoeste 37 Sudoeste 0.2 -- -- 84
2019-11-27 01:00:00 9.7 10 Sudoeste 35 Sudoeste 0.2 -- -- 87
2019-11-27 00:00:00 9.9 20 Oeste 36 Sudoeste 0.6 -- -- 92
2019-11-26 23:00:00 9.7 24 Sudoeste 50 Sudoeste 0.2 -- -- 90
2019-11-26 22:00:00 9.9 27 Sudoeste 48 Sudoeste 0.2 -- -- 87
2019-11-26 21:00:00 10.3 26 Sudoeste 43 Sudoeste 0 -- -- 81
2019-11-26 20:00:00 10.7 27 Sudoeste 61 Sudoeste 0 -- -- 84
2019-11-26 19:00:00 11.4 35 Sudoeste 53 Sudoeste 0.6 -- -- 89
2019-11-26 18:00:00 11.2 18 Sudoeste 37 Sudoeste 0.4 -- -- 92
2019-11-26 17:00:00 11.3 19 Sudoeste 40 Sur 0.2 -- -- 90
2019-11-26 16:00:00 11.5 21 Sudoeste 35 Sudoeste 0.4 -- -- 89
2019-11-26 15:00:00 11.3 18 Sudoeste 39 Sudoeste 0.6 -- -- 91
2019-11-26 14:00:00 11.4 21 Sudoeste 38 Sudoeste 0 -- -- 87
2019-11-26 13:00:00 10.8 19 Sudoeste 45 Oeste 0 -- -- 90
2019-11-26 12:00:00 10.8 29 Sudoeste 42 Sudoeste 0 -- -- 89
2019-11-26 11:00:00 11.4 21 Oeste 44 Sudoeste 0 -- -- 86
2019-11-26 10:00:00 11.4 27 Sudoeste 47 Sudoeste 0 -- -- 83
2019-11-26 09:00:00 10.2 24 Sudoeste 38 Sudoeste 0 -- -- 90
2019-11-26 08:00:00 9.5 15 Oeste 32 Sudoeste 0 -- -- 90
2019-11-26 07:00:00 9.4 19 Oeste 33 Oeste 0 -- -- 91
2019-11-26 06:00:00 9.2 19 Oeste 28 Oeste 0 -- -- 94
2019-11-26 05:00:00 6.6 9 Sudoeste 20 Oeste 0 -- -- 93
2019-11-26 04:00:00 6 5 Oeste 18 Sudoeste 0 -- -- 86
2019-11-26 03:00:00 5.4 12 Sudoeste 19 Sudoeste 0 -- -- 89
2019-11-26 02:00:00 5.4 9 Sudoeste 21 Sudeste 0 -- -- 89
2019-11-26 01:00:00 5.4 7 Sur 17 Sur 0 -- -- 91
2019-11-26 00:00:00 5.4 6 Sudoeste 19 Sur 0 -- -- 90
2019-11-25 23:00:00 5.3 4 Sudoeste 8 Sudeste 0 -- -- 91
2019-11-25 22:00:00 6.3 6 Sudoeste 11 Sudoeste 0 -- -- 91
2019-11-25 21:00:00 7.1 0 Calma 8 Este 0 -- -- 89
2019-11-25 20:00:00 8.7 3 Sur 17 Oeste 0 -- -- 86
2019-11-25 19:00:00 10 9 Oeste 16 Oeste 0 -- -- 86
2019-11-25 18:00:00 10.9 8 Oeste 23 Oeste 0 -- -- 81
2019-11-25 17:00:00 12.4 9 Sudoeste 17 Oeste 0 -- -- 72
2019-11-25 16:00:00 13.5 6 Noroeste 21 Norte 0 -- -- 62
2019-11-25 15:00:00 14.2 10 Norte 19 Noroeste 0 -- -- 59
2019-11-25 14:00:00 15 8 Oeste 17 Oeste 0 -- -- 57
2019-11-25 13:00:00 14.7 4 Sudoeste 29 Oeste 0 -- -- 59
2019-11-25 12:00:00 13.3 15 Oeste 27 Sudoeste 0 -- -- 66
2019-11-25 11:00:00 13.9 3 Nordeste 14 Noroeste 0 -- -- 64
2019-11-25 10:00:00 11.2 7 Noroeste 14 Oeste 0 -- -- 76
2019-11-25 09:00:00 8.9 3 Nordeste 13 Nordeste 0 -- -- 83
2019-11-25 08:00:00 8.4 3 Norte 10 Sudoeste 0 -- -- 88
2019-11-25 07:00:00 8.7 6 Este 18 Oeste 0 -- -- 84
2019-11-25 06:00:00 10.2 9 Oeste 20 Oeste 0 -- -- 82
2019-11-25 05:00:00 10.4 13 Sudoeste 24 Oeste 0 -- -- 87
2019-11-25 04:00:00 10 14 Oeste 30 Oeste 0 -- -- 87
2019-11-25 03:00:00 9.7 13 Oeste 34 Sudoeste 0 -- -- 88
2019-11-25 02:00:00 10.1 18 Sudoeste 33 Sudoeste 0 -- -- 85
2019-11-25 01:00:00 9.1 18 Oeste 47 Sudoeste 0 -- -- 87
2019-11-25 00:00:00 10.2 31 Sudoeste 48 Sudoeste 0 -- -- 82
2019-11-24 23:00:00 9.4 27 Sudoeste 45 Sudoeste 0 -- -- 82
2019-11-24 22:00:00 8.9 21 Oeste 41 Oeste 0 -- -- 84
2019-11-24 21:00:00 7.6 10 Sudoeste 28 Oeste 0 -- -- 87
2019-11-24 20:00:00 7.8 8 Oeste 19 Oeste 0 -- -- 83
2019-11-24 19:00:00 7.6 13 Sudoeste 36 Oeste 0 -- -- 82
2019-11-24 18:00:00 7.1 18 Sudoeste 27 Sudoeste 0 -- -- 80
2019-11-24 17:00:00 7.7 12 Oeste 27 Oeste 0 -- -- 75
2019-11-24 16:00:00 8.7 13 Sudoeste 21 Oeste 0 -- -- 67
2019-11-24 15:00:00 9.1 5 Norte 12 Norte 0 -- -- 62
2019-11-24 14:00:00 8.7 2 Sudeste 11 Nordeste 0 -- -- 62
2019-11-24 13:00:00 7.6 2 Norte 6 Sudeste 0 -- -- 63
2019-11-24 12:00:00 6.4 0 Calma 5 Sur 0 -- -- 72
2019-11-24 11:00:00 4.5 4 Oeste 10 Sudoeste 0 -- -- 79
2019-11-24 10:00:00 2.7 3 Sudoeste 10 Oeste 0 -- -- 85
2019-11-24 09:00:00 0.4 7 Oeste 10 Oeste 0 -- -- 91
2019-11-24 08:00:00 0.9 4 Sudoeste 7 Noroeste 0 -- -- 89
2019-11-24 07:00:00 1.7 3 Sur 9 Sudoeste 0 -- -- 87
2019-11-24 06:00:00 3.5 3 Este 8 Este 0 -- -- 83
2019-11-24 05:00:00 4.2 6 Este 10 Norte 0 -- -- 82
2019-11-24 04:00:00 4.6 7 Este 10 Este 0 -- -- 80
2019-11-24 03:00:00 4.5 5 Este 9 Nordeste 0 -- -- 82
2019-11-24 02:00:00 4.4 3 Norte 8 Nordeste 0 -- -- 83
2019-11-24 01:00:00 3.9 2 Nordeste 16 Noroeste 0 -- -- 84
2019-11-24 00:00:00 4.3 3 Nordeste 21 Noroeste 0 -- -- 79
2019-11-23 23:00:00 5.1 9 Noroeste 22 Noroeste 0 -- -- 75
2019-11-23 22:00:00 4.7 6 Norte 26 Noroeste 0 -- -- 79
2019-11-23 21:00:00 4.4 4 Norte 19 Norte 0 -- -- 77
2019-11-23 20:00:00 5.6 9 Norte 20 Noroeste 0 -- -- 72
2019-11-23 19:00:00 6.2 5 Noroeste 17 Noroeste 0 -- -- 68
2019-11-23 18:00:00 6.9 8 Norte 18 Norte 0 -- -- 67
2019-11-23 17:00:00 8 9 Noroeste 29 Noroeste 0 -- -- 63
2019-11-23 16:00:00 7.9 13 Noroeste 35 Noroeste 0 -- -- 62
2019-11-23 15:00:00 8.3 14 Noroeste 30 Norte 0 -- -- 59
2019-11-23 14:00:00 7.8 16 Noroeste 35 Norte 0 -- -- 64
2019-11-23 13:00:00 6.7 12 Norte 30 Norte 0 -- -- 67
2019-11-23 12:00:00 6.5 13 Norte 31 Norte 0 -- -- 67
2019-11-23 11:00:00 5.1 13 Norte 31 Noroeste 0 -- -- 73
2019-11-23 10:00:00 4.2 9 Nordeste 27 Norte 0 -- -- 79
2019-11-23 09:00:00 4 8 Norte 23 Norte 0 -- -- 78
2019-11-23 08:00:00 3.7 7 Nordeste 19 Noroeste 0 -- -- 80
2019-11-23 07:00:00 3.9 5 Nordeste 23 Noroeste 0 -- -- 72
2019-11-23 06:00:00 4.3 12 Noroeste 30 Noroeste 0 -- -- 72
2019-11-23 05:00:00 4.8 10 Noroeste 28 Noroeste 0 -- -- 69
2019-11-23 04:00:00 5 17 Noroeste 36 Noroeste 0 -- -- 72
2019-11-23 03:00:00 5.1 12 Noroeste 44 Oeste 0 -- -- 73
2019-11-23 02:00:00 5 22 Oeste 52 Oeste 0 -- -- 74
2019-11-23 01:00:00 4.8 32 Oeste 72 Noroeste 1.4 -- -- 78
2019-11-23 00:00:00 6.6 29 Oeste 53 Oeste 0 -- -- 76
2019-11-22 23:00:00 6.9 21 Oeste 40 Oeste 0.4 -- -- 73
2019-11-22 22:00:00 6.9 18 Sudoeste 37 Sudoeste 0 -- -- 82
2019-11-22 21:00:00 7.5 15 Sudoeste 27 Sur 0 -- -- 78
2019-11-22 20:00:00 7.7 14 Sur 32 Sur 0.2 -- -- 77
2019-11-22 19:00:00 8 10 Sudoeste 21 Sudoeste 0 -- -- 83
2019-11-22 18:00:00 8.6 17 Sudoeste 38 Sudoeste 0 -- -- 80
2019-11-22 17:00:00 9.8 19 Sudoeste 34 Sudoeste 0 -- -- 80
2019-11-22 16:00:00 10.6 19 Sudoeste 42 Sudoeste 0 -- -- 83
2019-11-22 15:00:00 10.4 20 Sudoeste 36 Sudoeste 0 -- -- 88
2019-11-22 14:00:00 10.4 18 Sudoeste 48 Sudoeste 0.2 -- -- 91
2019-11-22 13:00:00 9.4 24 Sudoeste 39 Sudoeste 1.2 -- -- 90
2019-11-22 12:00:00 8.8 22 Sudoeste 53 Sudoeste 1.8 -- -- 89
2019-11-22 11:00:00 8.8 29 Sudoeste 49 Sudoeste 0.2 -- -- 85
2019-11-22 10:00:00 8.6 24 Sudoeste 49 Sudoeste 0 -- -- 84
2019-11-22 09:00:00 8.1 30 Sudoeste 48 Sur 0.2 -- -- 81
2019-11-22 08:00:00 6.7 18 Sudoeste 39 Sudoeste 0.6 -- -- 89
2019-11-22 07:00:00 6.3 19 Sudoeste 40 Sudoeste 1 -- -- 90
2019-11-22 06:00:00 6.2 25 Sudoeste 43 Sudoeste 0.4 -- -- 89
2019-11-22 05:00:00 6.2 24 Sudoeste 49 Sudoeste 0.4 -- -- 88
2019-11-22 04:00:00 6.4 23 Sudoeste 45 Sudoeste 0 -- -- 90
2019-11-22 03:00:00 6.9 18 Sudoeste 34 Sudoeste 0 -- -- 87
2019-11-22 02:00:00 6.5 17 Sudoeste 29 Sur 0 -- -- 87
2019-11-22 01:00:00 5.6 8 Sudoeste 33 Sudoeste 0 -- -- 86
2019-11-22 00:00:00 5.2 6 Sudoeste 20 Oeste 0 -- -- 84
2019-11-21 23:00:00 4.5 6 Sur 18 Oeste 0 -- -- 89
2019-11-21 22:00:00 3.4 6 Sudoeste 14 Sudoeste 0 -- -- 85
2019-11-21 21:00:00 3.1 9 Sur 15 Oeste 0 -- -- 88
2019-11-21 20:00:00 5.2 12 Sudoeste 19 Sudoeste 0 -- -- 88
2019-11-21 19:00:00 5.2 4 Sudoeste 19 Oeste 0 -- -- 87
2019-11-21 18:00:00 6.6 11 Sudoeste 17 Sudoeste 0 -- -- 84
2019-11-21 17:00:00 8.9 12 Sudoeste 22 Sudoeste 0 -- -- 68
2019-11-21 16:00:00 8.6 15 Sudoeste 31 Sudoeste 0 -- -- 73
2019-11-21 15:00:00 8.4 16 Sudoeste 31 Oeste 0 -- -- 78
2019-11-21 14:00:00 9 17 Sudoeste 32 Sudoeste 0 -- -- 78
2019-11-21 13:00:00 8.2 15 Sudoeste 22 Sudoeste 0 -- -- 86
2019-11-21 12:00:00 7 7 Oeste 19 Oeste 0 -- -- 88
2019-11-21 11:00:00 6.2 10 Oeste 19 Oeste 0.2 -- -- 91
2019-11-21 10:00:00 5.5 8 Oeste 21 Sudoeste 0 -- -- 92
2019-11-21 09:00:00 4.9 11 Oeste 18 Sudoeste 0.2 -- -- 94
2019-11-21 08:00:00 4.5 8 Sudoeste 15 Oeste 0 -- -- 94
2019-11-21 07:00:00 4.3 12 Sudoeste 26 Sudoeste 0 -- -- 94
2019-11-21 06:00:00 4.2 16 Sudoeste 24 Sudoeste 0 -- -- 93
2019-11-21 05:00:00 4.4 13 Oeste 24 Sudoeste 0 -- -- 92
2019-11-21 04:00:00 4.3 10 Sudoeste 28 Oeste 0 -- -- 90
2019-11-21 03:00:00 3.9 8 Oeste 26 Sudoeste 0 -- -- 92
2019-11-21 02:00:00 4.4 18 Sudoeste 28 Sudoeste 0 -- -- 90
2019-11-21 01:00:00 3.8 15 Sudoeste 23 Sudoeste 0 -- -- 93
2019-11-21 00:00:00 2.7 5 Este 21 Sudoeste 0 -- -- 92
2019-11-20 23:00:00 3.7 16 Sudoeste 27 Oeste 0 -- -- 91
2019-11-20 22:00:00 3.6 12 Oeste 19 Sudoeste 0 -- -- 91
2019-11-20 21:00:00 3.5 13 Sudoeste 20 Oeste 0 -- -- 91
2019-11-20 20:00:00 3.3 12 Sudoeste 21 Oeste 0 -- -- 91
2019-11-20 19:00:00 3.3 6 Oeste 24 Oeste 0 -- -- 89
2019-11-20 18:00:00 4.1 14 Oeste 28 Oeste 0.2 -- -- 86
2019-11-20 17:00:00 4.7 9 Oeste 26 Sudoeste 0 -- -- 85
2019-11-20 16:00:00 4.8 16 Sudoeste 30 Sudoeste 0 -- -- 84
2019-11-20 15:00:00 4.3 21 Sudoeste 33 Sudoeste 0 -- -- 85
2019-11-20 14:00:00 4.1 15 Oeste 28 Sudoeste 0.4 -- -- 88
2019-11-20 13:00:00 4.2 18 Sudoeste 27 Oeste 0 -- -- 86
2019-11-20 12:00:00 4.8 19 Sudoeste 28 Sudoeste 0 -- -- 83
2019-11-20 11:00:00 4.4 13 Oeste 31 Sudoeste 0.2 -- -- 87
2019-11-20 10:00:00 4.2 17 Sudoeste 30 Sudoeste 0 -- -- 81
2019-11-20 09:00:00 3.6 18 Sudoeste 34 Sudoeste 0 -- -- 83
2019-11-20 08:00:00 4.1 16 Sudoeste 36 Sudoeste 0 -- -- 80
2019-11-20 07:00:00 4.1 23 Sudoeste 34 Sudoeste 0 -- -- 78
2019-11-20 06:00:00 4.2 14 Sudoeste 29 Oeste 0 -- -- 66
2019-11-20 05:00:00 4.6 14 Sudoeste 23 Sudoeste 0 -- -- 62
2019-11-20 04:00:00 4.2 9 Sudoeste 21 Sudoeste 0 -- -- 73
2019-11-20 03:00:00 3.6 5 Sudoeste 13 Sur 0 -- -- 83
2019-11-20 02:00:00 3.8 8 Sudoeste 12 Sudoeste 0 -- -- 85
2019-11-20 01:00:00 3.8 7 Sudoeste 10 Sudoeste 0 -- -- 84
2019-11-20 00:00:00 4.5 6 Sudoeste 14 Sudoeste 0 -- -- 78
2019-11-19 23:00:00 4.3 3 Sur 12 Sudeste 0 -- -- 79
2019-11-19 22:00:00 4.6 4 Sudoeste 10 Sudoeste 0 -- -- 74
2019-11-19 21:00:00 4.9 10 Sudoeste 18 Oeste 0 -- -- 76
2019-11-19 20:00:00 5 9 Oeste 18 Oeste 0 -- -- 77
2019-11-19 19:00:00 5.2 9 Oeste 17 Oeste 0 -- -- 74
2019-11-19 18:00:00 5.8 11 Oeste 21 Oeste 0 -- -- 67
2019-11-19 17:00:00 6.5 12 Oeste 23 Oeste 0 -- -- 64
2019-11-19 16:00:00 7.7 6 Oeste 22 Oeste 0 -- -- 57
2019-11-19 15:00:00 7.8 13 Oeste 21 Oeste 0 -- -- 56
2019-11-19 14:00:00 7.5 6 Norte 13 Noroeste 0 -- -- 64
2019-11-19 13:00:00 6.9 8 Norte 14 Norte 0 -- -- 61
2019-11-19 12:00:00 4.6 4 Este 7 Sudeste 0 -- -- 78
2019-11-19 11:00:00 1.6 4 Sudoeste 13 Sudoeste 0 -- -- 88
2019-11-19 10:00:00 -0.5 8 Sudoeste 15 Sudoeste 0 -- -- 90
2019-11-19 09:00:00 -1.8 7 Sudoeste 16 Sudoeste 0 -- -- 91
2019-11-19 08:00:00 -2.4 12 Sudoeste 17 Sudoeste 0 -- -- 91
2019-11-19 07:00:00 -2.6 8 Sudoeste 13 Sudoeste 0 -- -- 91
2019-11-19 06:00:00 -3.1 10 Oeste 14 Oeste 0 -- -- 92
2019-11-19 05:00:00 -3.2 3 Sudoeste 17 Sudoeste 0 -- -- 91
2019-11-19 04:00:00 -2.5 13 Sudoeste 19 Oeste 0 -- -- 91
2019-11-19 03:00:00 -2 12 Sudoeste 17 Sudoeste 0 -- -- 90
2019-11-19 02:00:00 -2.2 11 Sudoeste 15 Sudoeste 0 -- -- 92
2019-11-19 01:00:00 -1.5 9 Sudoeste 17 Sudoeste 0 -- -- 91
2019-11-19 00:00:00 -1.5 12 Sudoeste 16 Sudoeste 0 -- -- 92
2019-11-18 23:00:00 -1 6 Sudoeste 14 Sudoeste 0 -- -- 91
2019-11-18 22:00:00 -0.2 9 Sudoeste 14 Oeste 0 -- -- 90
2019-11-18 21:00:00 0.5 5 Sudoeste 12 Sudoeste 0 -- -- 88
2019-11-18 20:00:00 1.4 8 Sudoeste 12 Sudoeste 0 -- -- 86
2019-11-18 19:00:00 3.1 6 Sudoeste 9 Sudoeste 0 -- -- 79
2019-11-18 18:00:00 6 5 Norte 13 Nordeste 0 -- -- 67
2019-11-18 17:00:00 7.1 6 Nordeste 13 Nordeste 0 -- -- 63
2019-11-18 16:00:00 7.1 5 Norte 18 Nordeste 0 -- -- 62
2019-11-18 15:00:00 7.5 7 Nordeste 15 Nordeste 0 -- -- 58
2019-11-18 14:00:00 6.8 6 Nordeste 12 Nordeste 0 -- -- 65
2019-11-18 13:00:00 6.8 4 Noroeste 13 Sudeste 0 -- -- 68
2019-11-18 12:00:00 5.3 3 Noroeste 7 Sur 0 -- -- 73
2019-11-18 11:00:00 3.7 3 Norte 6 Noroeste 0 -- -- 82
2019-11-18 10:00:00 2.9 2 Noroeste 7 Norte 0 -- -- 87
2019-11-18 09:00:00 2.6 4 Norte 9 Norte 0 -- -- 88
2019-11-18 08:00:00 2.4 5 Noroeste 14 Norte 0 -- -- 89
2019-11-18 07:00:00 2.8 6 Norte 11 Norte 0 -- -- 89
2019-11-18 06:00:00 2.8 3 Nordeste 9 Norte 0 -- -- 92
2019-11-18 05:00:00 2.8 4 Nordeste 11 Nordeste 0 -- -- 93
2019-11-18 04:00:00 2.9 5 Nordeste 14 Norte 0 -- -- 92
2019-11-18 03:00:00 2.9 5 Norte 21 Norte 0 -- -- 91
2019-11-18 02:00:00 3.2 7 Norte 23 Norte 0 -- -- 89
2019-11-18 01:00:00 3.2 8 Noroeste 16 Norte 0 -- -- 86
2019-11-18 00:00:00 2.9 4 Nordeste 14 Norte 0 -- -- 88
2019-11-17 23:00:00 3.7 11 Norte 22 Nordeste 0 -- -- 86
2019-11-17 22:00:00 4.2 4 Este 19 Nordeste 0 -- -- 89
2019-11-17 21:00:00 5.5 6 Norte 22 Norte 0 -- -- 89
2019-11-17 20:00:00 6.3 13 Noroeste 35 Oeste 3 -- -- 87
2019-11-17 19:00:00 6.6 7 Nordeste 16 Norte 0.4 -- -- 92
2019-11-17 18:00:00 6.9 5 Oeste 13 Oeste 0.4 -- -- 89
2019-11-17 17:00:00 6.6 8 Sudoeste 25 Oeste 0.2 -- -- 89
2019-11-17 16:00:00 8.1 12 Oeste 23 Oeste 0 -- -- 85
2019-11-17 15:00:00 8.4 8 Sudoeste 17 Sudoeste 0 -- -- 81
2019-11-17 14:00:00 7.6 4 Sudeste 21 Oeste 0 -- -- 88
2019-11-17 13:00:00 6.9 9 Sudoeste 17 Oeste 0.2 -- -- 87
2019-11-17 12:00:00 6.4 7 Oeste 13 Oeste 0.2 -- -- 87
2019-11-17 11:00:00 4.6 4 Sudoeste 8 Este 0 -- -- 90
2019-11-17 10:00:00 2.6 0 Calma 6 Sur 0 -- -- 91
2019-11-17 09:00:00 1.5 2 Sudeste 9 Sudoeste 0 -- -- 91
2019-11-17 08:00:00 1.6 6 Sur 11 Sudoeste 0 -- -- 88
2019-11-17 07:00:00 1.3 6 Sudoeste 9 Sur 0 -- -- 90
2019-11-17 06:00:00 0.8 5 Sudoeste 10 Sudoeste 0 -- -- 89
2019-11-17 05:00:00 0.2 3 Sudoeste 8 Oeste 0 -- -- 89
2019-11-17 04:00:00 -0.2 3 Este 12 Sudoeste 0 -- -- 89
2019-11-17 03:00:00 -0.9 8 Sudoeste 12 Sudoeste 0 -- -- 90
2019-11-17 02:00:00 -1.4 6 Oeste 9 Sudoeste 0 -- -- 90
2019-11-17 01:00:00 -0.9 2 Oeste 6 Noroeste 0 -- -- 87
2019-11-17 00:00:00 -0.3 4 Este 8 Sudeste 0 -- -- 86
2019-11-16 23:00:00 -0.2 0 Calma 5 Sudeste 0 -- -- 85
2019-11-16 22:00:00 1 4 Sur 8 Sudeste 0 -- -- 81
2019-11-16 21:00:00 1.2 3 Oeste 6 Sudeste 0 -- -- 82
2019-11-16 20:00:00 2.1 3 Nordeste 10 Nordeste 0 -- -- 75
2019-11-16 19:00:00 3.2 5 Nordeste 15 Este 0 -- -- 70
2019-11-16 18:00:00 4.8 6 Nordeste 20 Norte 0 -- -- 64
2019-11-16 17:00:00 6.7 8 Noroeste 26 Norte 0 -- -- 57
2019-11-16 16:00:00 7.4 13 Noroeste 26 Noroeste 0 -- -- 52
2019-11-16 15:00:00 7.3 13 Noroeste 25 Noroeste 0 -- -- 50
2019-11-16 14:00:00 7.4 6 Noroeste 18 Noroeste 0 -- -- 53
2019-11-16 13:00:00 7 2 Nordeste 10 Este 0 -- -- 55
2019-11-16 12:00:00 5.6 6 Sudoeste 13 Sudeste 0 -- -- 59
2019-11-16 11:00:00 5 4 Este 8 Sur 0 -- -- 67
2019-11-16 10:00:00 2.4 2 Sudeste 13 Sudoeste 0 -- -- 81
2019-11-16 09:00:00 -0.9 4 Sudoeste 10 Sudoeste 0 -- -- 90
2019-11-16 08:00:00 -0.1 5 Sudoeste 11 Oeste 0 -- -- 89
2019-11-16 07:00:00 0.7 3 Norte 8 Nordeste 0 -- -- 88
2019-11-16 06:00:00 0.8 3 Norte 5 Nordeste 0 -- -- 87
2019-11-16 05:00:00 0.8 3 Nordeste 8 Norte 0 -- -- 86
2019-11-16 04:00:00 0.8 3 Nordeste 12 Norte 0 -- -- 88
2019-11-16 03:00:00 0.8 5 Norte 15 Norte 0 -- -- 87
2019-11-16 02:00:00 1 8 Noroeste 15 Norte 0 -- -- 88
2019-11-16 01:00:00 1.2 6 Noroeste 13 Noroeste 0 -- -- 87
2019-11-16 00:00:00 1.1 4 Nordeste 13 Nordeste 0 -- -- 89
2019-11-15 23:00:00 1.9 6 Norte 18 Norte 0 -- -- 80
2019-11-15 22:00:00 2.1 8 Noroeste 17 Norte 0 -- -- 77
2019-11-15 21:00:00 2.4 5 Norte 13 Noroeste 0 -- -- 76
2019-11-15 20:00:00 2.3 8 Norte 21 Norte 0 -- -- 76
2019-11-15 19:00:00 2.5 11 Norte 23 Noroeste 0 -- -- 73
2019-11-15 18:00:00 3.7 5 Noroeste 20 Noroeste 0 -- -- 69
2019-11-15 17:00:00 4.4 8 Noroeste 17 Norte 0 -- -- 63
2019-11-15 16:00:00 4.3 12 Noroeste 24 Noroeste 0 -- -- 64
2019-11-15 15:00:00 3.9 10 Noroeste 18 Norte 0 -- -- 71
2019-11-15 14:00:00 3 4 Nordeste 10 Nordeste 0 -- -- 80
2019-11-15 13:00:00 2.6 4 Noroeste 18 Noroeste 0 -- -- 79
2019-11-15 12:00:00 2.1 6 Noroeste 15 Norte 0 -- -- 85
2019-11-15 11:00:00 1.1 6 Nordeste 14 Este 0.2 -- -- 93
2019-11-15 10:00:00 0.3 5 Nordeste 10 Norte 0.2 -- -- 92
2019-11-15 09:00:00 0.5 5 Norte 10 Noroeste 0 -- -- 88
2019-11-15 08:00:00 0.5 2 Nordeste 15 Norte 0 -- -- 88
2019-11-15 07:00:00 0.3 5 Nordeste 12 Noroeste 0.2 -- -- 90
2019-11-15 06:00:00 0.3 8 Nordeste 25 Noroeste 0 -- -- 90
2019-11-15 05:00:00 0.6 5 Norte 26 Norte 0.2 -- -- 87
2019-11-15 04:00:00 1.2 14 Noroeste 41 Noroeste 0 -- -- 83
2019-11-15 03:00:00 2.1 15 Noroeste 35 Oeste 0 -- -- 75
2019-11-15 02:00:00 2.6 11 Noroeste 36 Noroeste 0 -- -- 73
2019-11-15 01:00:00 2.7 18 Norte 34 Noroeste 0 -- -- 73
2019-11-15 00:00:00 3.1 15 Noroeste 40 Noroeste 0 -- -- 74